Time;durP1;ratioP1;P1;durP2;ratioP2;P2;SDS_P1;SDS_P2;PMS_P1;PMS_P2;Temp;Humidity;BMP_temperature;BMP_pressure;BME280_temperature;BME280_humidity;BME280_pressure;Samples;Min_cycle;Max_cycle;Signal;HPM_P1;HPM_P2
2022/07/23 00:01:16;;;;;;;;;;;20.20;94.90;;;;;;5137262;27;20370;-57
2022/07/23 00:03:42;;;;;;;;;;;20.10;95.00;;;;;;5136650;27;19914;-54
2022/07/23 00:06:07;;;;;;;;;;;20.20;94.80;;;;;;5137112;27;20013;-53
2022/07/23 00:08:33;;;;;;;;;;;20.10;95.20;;;;;;5136897;27;20017;-53
2022/07/23 00:10:58;;;;;;;;;;;20.10;95.00;;;;;;5126590;27;19912;-53
2022/07/23 00:13:24;;;;;;;;;;;20.10;95.10;;;;;;5116251;28;19915;-53
2022/07/23 00:15:50;;;;;;;;;;;20.00;95.20;;;;;;5116196;28;19965;-51
2022/07/23 00:18:15;;;;;;;;;;;20.00;95.20;;;;;;5115638;28;19918;-52
2022/07/23 00:20:41;;;;;;;;;;;20.00;95.20;;;;;;5115876;28;19919;-53
2022/07/23 00:23:06;;;;;;;;;;;20.00;95.30;;;;;;5116036;28;19931;-56
2022/07/23 00:25:32;;;;;;;;;;;20.00;95.20;;;;;;5098351;28;19914;-55
2022/07/23 00:28:01;;;;;;;;;;;20.10;95.20;;;;;;5116394;28;19912;-51
2022/07/23 00:30:29;;;;;;;;;;;20.10;95.10;;;;;;5116497;28;19912;-55
2022/07/23 00:32:58;;;;;;;;;;;20.10;95.30;;;;;;5115859;28;20002;-55
2022/07/23 00:35:25;;;;;;;;;;;20.00;95.30;;;;;;5116779;28;19919;-56
2022/07/23 00:37:51;;;;;;;;;;;20.00;95.20;;;;;;5115552;28;19908;-53
2022/07/23 00:40:17;;;;;;;;;;;19.80;95.50;;;;;;5097849;28;19938;-52
2022/07/23 00:42:43;;;;;;;;;;;19.80;95.50;;;;;;5097676;28;19912;-56
2022/07/23 00:45:09;;;;;;;;;;;19.80;95.50;;;;;;5135131;27;19975;-51
2022/07/23 00:47:35;;;;;;;;;;;19.90;95.60;;;;;;5137255;27;19929;-54
2022/07/23 00:50:00;;;;;;;;;;;19.90;95.40;;;;;;5136079;27;19915;-54
2022/07/23 00:52:26;;;;;;;;;;;20.00;95.40;;;;;;5135616;27;19919;-50
2022/07/23 00:54:52;;;;;;;;;;;20.10;94.90;;;;;;5135092;27;19907;-53
2022/07/23 00:57:17;;;;;;;;;;;20.10;94.90;;;;;;5134828;27;20431;-56
2022/07/23 00:59:43;;;;;;;;;;;20.10;94.90;;;;;;5135574;27;19911;-54
2022/07/23 01:02:09;;;;;;;;;;;20.00;95.20;;;;;;5135829;27;19907;-54
2022/07/23 01:04:34;;;;;;;;;;;19.80;95.30;;;;;;5136523;27;19927;-56
2022/07/23 01:07:00;;;;;;;;;;;19.70;95.60;;;;;;5136025;27;20252;-54
2022/07/23 01:09:26;;;;;;;;;;;19.70;95.50;;;;;;5136280;27;19927;-51
2022/07/23 01:11:54;;;;;;;;;;;19.80;95.60;;;;;;5118448;27;19908;-54
2022/07/23 01:14:19;;;;;;;;;;;19.80;95.30;;;;;;5114173;28;19967;-50
2022/07/23 01:16:46;;;;;;;;;;;19.90;95.80;;;;;;5078922;28;19915;-56
2022/07/23 01:19:11;;;;;;;;;;;19.90;95.20;;;;;;5113707;28;19912;-54
2022/07/23 01:21:38;;;;;;;;;;;19.90;95.40;;;;;;5114564;28;20313;-51
2022/07/23 01:24:04;;;;;;;;;;;19.90;95.30;;;;;;5096525;28;19964;-51
2022/07/23 01:26:30;;;;;;;;;;;19.80;95.30;;;;;;5113716;28;19911;-51
2022/07/23 01:28:56;;;;;;;;;;;19.80;95.40;;;;;;5114861;28;19916;-56
2022/07/23 01:31:22;;;;;;;;;;;19.70;95.30;;;;;;5115353;28;19915;-52
2022/07/23 01:33:47;;;;;;;;;;;19.50;95.80;;;;;;5115055;28;20347;-51
2022/07/23 01:36:13;;;;;;;;;;;19.50;95.70;;;;;;5114260;28;19955;-54
2022/07/23 01:38:38;;;;;;;;;;;19.50;95.90;;;;;;5114529;28;20010;-53
2022/07/23 01:41:04;;;;;;;;;;;19.50;95.90;;;;;;5114079;28;19908;-55
2022/07/23 01:43:30;;;;;;;;;;;19.50;96.00;;;;;;5119759;27;19911;-50
2022/07/23 01:45:55;;;;;;;;;;;19.50;96.30;;;;;;5134332;27;19912;-54
2022/07/23 01:48:21;;;;;;;;;;;19.60;96.20;;;;;;5133865;27;19984;-51
2022/07/23 01:50:47;;;;;;;;;;;19.60;96.30;;;;;;5133709;27;20409;-52
2022/07/23 01:53:13;;;;;;;;;;;19.50;96.50;;;;;;5134254;27;19916;-51
2022/07/23 01:55:38;;;;;;;;;;;19.50;96.50;;;;;;5133347;27;20501;-52
2022/07/23 01:58:05;;;;;;;;;;;19.50;96.30;;;;;;5115291;27;19911;-51
2022/07/23 02:00:31;;;;;;;;;;;19.30;97.00;;;;;;5133969;27;19908;-53
2022/07/23 02:02:58;;;;;;;;;;;19.30;97.00;;;;;;5134462;27;19919;-54
2022/07/23 02:05:24;;;;;;;;;;;19.30;97.00;;;;;;5134374;27;19911;-52
2022/07/23 02:07:49;;;;;;;;;;;19.20;97.30;;;;;;5134700;27;19949;-51
2022/07/23 02:10:15;;;;;;;;;;;19.00;97.60;;;;;;5130629;27;19912;-51
2022/07/23 02:12:40;;;;;;;;;;;19.00;97.80;;;;;;5121061;27;20013;-52
2022/07/23 02:15:06;;;;;;;;;;;18.90;97.70;;;;;;5133277;27;19916;-53
2022/07/23 02:17:32;;;;;;;;;;;18.90;97.70;;;;;;5133437;27;19911;-51
2022/07/23 02:19:57;;;;;;;;;;;18.90;97.70;;;;;;5134147;27;20350;-52
2022/07/23 02:22:23;;;;;;;;;;;18.90;98.30;;;;;;5133464;27;20388;-51
2022/07/23 02:24:48;;;;;;;;;;;19.00;98.00;;;;;;5133118;27;19915;-56
2022/07/23 02:27:14;;;;;;;;;;;18.90;97.70;;;;;;5132853;27;19914;-52
2022/07/23 02:29:39;;;;;;;;;;;18.90;97.80;;;;;;5132992;27;19915;-52
2022/07/23 02:32:05;;;;;;;;;;;19.00;97.90;;;;;;5133696;28;19912;-52
2022/07/23 02:34:31;;;;;;;;;;;18.80;97.90;;;;;;5135143;28;20372;-54
2022/07/23 02:36:56;;;;;;;;;;;18.80;98.00;;;;;;5134284;28;20278;-47
2022/07/23 02:39:22;;;;;;;;;;;18.90;97.80;;;;;;5134274;27;20328;-48
2022/07/23 02:41:47;;;;;;;;;;;18.80;98.00;;;;;;5134865;28;19911;-47
2022/07/23 02:44:13;;;;;;;;;;;18.80;97.80;;;;;;5124359;28;19930;-51
2022/07/23 02:46:38;;;;;;;;;;;18.80;97.90;;;;;;5095092;28;19912;-48
2022/07/23 02:49:04;;;;;;;;;;;18.90;97.80;;;;;;5113790;28;19923;-48
2022/07/23 02:51:30;;;;;;;;;;;18.80;97.80;;;;;;5113600;28;19912;-47
2022/07/23 02:53:56;;;;;;;;;;;18.80;97.80;;;;;;5114648;28;20128;-48
2022/07/23 02:56:22;;;;;;;;;;;18.80;97.70;;;;;;5113540;28;19998;-52
2022/07/23 02:58:48;;;;;;;;;;;18.80;97.80;;;;;;5114558;28;19930;-50
2022/07/23 03:01:13;;;;;;;;;;;18.90;97.60;;;;;;5114048;28;19912;-50
2022/07/23 03:03:39;;;;;;;;;;;19.10;97.20;;;;;;5114600;28;20295;-49
2022/07/23 03:06:05;;;;;;;;;;;19.00;97.30;;;;;;5113448;28;20294;-46
2022/07/23 03:08:30;;;;;;;;;;;19.10;96.90;;;;;;5113103;28;19911;-47
2022/07/23 03:10:56;;;;;;;;;;;19.10;96.90;;;;;;5113632;28;19963;-51
2022/07/23 03:13:21;;;;;;;;;;;19.20;96.70;;;;;;5113941;28;19908;-50
2022/07/23 03:15:47;;;;;;;;;;;19.30;96.40;;;;;;5113646;28;20451;-46
2022/07/23 03:18:12;;;;;;;;;;;19.30;96.30;;;;;;5113499;28;20431;-48
2022/07/23 03:20:38;;;;;;;;;;;19.30;96.30;;;;;;5112632;28;20381;-52
2022/07/23 03:23:04;;;;;;;;;;;19.30;96.20;;;;;;5113144;28;19915;-49
2022/07/23 03:25:29;;;;;;;;;;;19.50;96.00;;;;;;5113451;28;19915;-49
2022/07/23 03:27:55;;;;;;;;;;;19.40;95.90;;;;;;5113326;28;20015;-46
2022/07/23 03:30:20;;;;;;;;;;;19.30;95.90;;;;;;5114268;28;19919;-52
2022/07/23 03:32:46;;;;;;;;;;;19.20;96.10;;;;;;5113366;28;20353;-48
2022/07/23 03:35:11;;;;;;;;;;;19.10;96.50;;;;;;5113420;28;19912;-46
2022/07/23 03:37:37;;;;;;;;;;;19.10;97.00;;;;;;5112870;28;20006;-52
2022/07/23 03:40:03;;;;;;;;;;;18.90;97.20;;;;;;5117072;28;19920;-52
2022/07/23 03:42:28;;;;;;;;;;;18.80;97.50;;;;;;5117388;28;20328;-46
2022/07/23 03:44:54;;;;;;;;;;;18.90;97.60;;;;;;5134169;27;19956;-47
2022/07/23 03:47:21;;;;;;;;;;;18.90;97.70;;;;;;5136738;27;19915;-48
2022/07/23 03:49:47;;;;;;;;;;;18.90;97.80;;;;;;5136668;27;20023;-50
2022/07/23 03:52:13;;;;;;;;;;;18.90;98.10;;;;;;5118047;27;19914;-53
2022/07/23 03:54:39;;;;;;;;;;;18.90;98.10;;;;;;5137265;27;19915;-47
2022/07/23 03:57:04;;;;;;;;;;;18.80;98.50;;;;;;5136549;27;19947;-48
2022/07/23 03:59:30;;;;;;;;;;;18.70;99.10;;;;;;5137162;27;19916;-50
2022/07/23 04:01:56;;;;;;;;;;;18.60;99.90;;;;;;5137110;27;19916;-53
2022/07/23 04:04:21;;;;;;;;;;;18.30;99.90;;;;;;5136804;27;19926;-55
2022/07/23 04:06:47;;;;;;;;;;;18.00;99.90;;;;;;5135875;27;19912;-56
2022/07/23 04:09:13;;;;;;;;;;;17.80;99.90;;;;;;5135520;27;20014;-52
2022/07/23 04:11:38;;;;;;;;;;;17.80;99.90;;;;;;5120696;27;19908;-53
2022/07/23 04:14:04;;;;;;;;;;;17.70;99.90;;;;;;5115200;28;19908;-54
2022/07/23 04:16:31;;;;;;;;;;;17.80;99.90;;;;;;5115243;28;20006;-54
2022/07/23 04:18:57;;;;;;;;;;;17.90;99.90;;;;;;5115915;28;19912;-57
2022/07/23 04:21:23;;;;;;;;;;;18.10;99.90;;;;;;5115575;28;19915;-54
2022/07/23 04:23:48;;;;;;;;;;;18.10;99.90;;;;;;5115439;28;20315;-55
2022/07/23 04:26:14;;;;;;;;;;;18.20;99.90;;;;;;5115016;28;19969;-59
2022/07/23 04:28:40;;;;;;;;;;;18.30;99.90;;;;;;5096707;28;19912;-53
2022/07/23 04:31:05;;;;;;;;;;;18.40;99.90;;;;;;5115828;28;19912;-52
2022/07/23 04:33:31;;;;;;;;;;;18.40;99.90;;;;;;5114939;28;19918;-54
2022/07/23 04:35:56;;;;;;;;;;;18.20;99.90;;;;;;5115062;28;20373;-49
2022/07/23 04:38:22;;;;;;;;;;;18.10;99.90;;;;;;5115074;28;20014;-47
2022/07/23 04:40:47;;;;;;;;;;;18.00;99.90;;;;;;5115950;28;20359;-49
2022/07/23 04:43:13;;;;;;;;;;;17.80;99.90;;;;;;5117628;27;20282;-51
2022/07/23 04:45:38;;;;;;;;;;;17.80;99.90;;;;;;5117364;27;19913;-54
2022/07/23 04:48:04;;;;;;;;;;;17.90;99.90;;;;;;5135967;27;20381;-49
2022/07/23 04:50:29;;;;;;;;;;;18.10;99.90;;;;;;5134857;27;19912;-52
2022/07/23 04:52:55;;;;;;;;;;;18.30;99.90;;;;;;5134559;27;19915;-47
2022/07/23 04:55:20;;;;;;;;;;;18.40;99.90;;;;;;5134841;27;19919;-51
2022/07/23 04:57:46;;;;;;;;;;;18.50;99.90;;;;;;5134883;27;19919;-51
2022/07/23 05:00:12;;;;;;;;;;;18.60;99.90;;;;;;5135570;27;19919;-50
2022/07/23 05:02:37;;;;;;;;;;;18.50;99.90;;;;;;5135321;27;20019;-48
2022/07/23 05:05:03;;;;;;;;;;;18.40;99.90;;;;;;5135260;27;20362;-53
2022/07/23 05:07:28;;;;;;;;;;;18.40;99.90;;;;;;5135372;27;20335;-49
2022/07/23 05:09:54;;;;;;;;;;;18.40;99.90;;;;;;5116254;27;19964;-50
2022/07/23 05:12:20;;;;;;;;;;;18.50;99.90;;;;;;5113858;28;19937;-53
2022/07/23 05:14:45;;;;;;;;;;;18.50;99.90;;;;;;5115383;28;19908;-50
2022/07/23 05:17:10;;;;;;;;;;;18.40;99.90;;;;;;5113930;28;19912;-53
2022/07/23 05:19:36;;;;;;;;;;;18.20;99.90;;;;;;5114320;28;20321;-54
2022/07/23 05:22:02;;;;;;;;;;;18.00;99.90;;;;;;5115117;28;19919;-53
2022/07/23 05:24:27;;;;;;;;;;;18.10;99.90;;;;;;5113789;28;19934;-53
2022/07/23 05:26:53;;;;;;;;;;;18.10;99.90;;;;;;5095980;28;19912;-54
2022/07/23 05:29:19;;;;;;;;;;;18.10;99.90;;;;;;5115080;28;19912;-57
2022/07/23 05:31:44;;;;;;;;;;;18.00;99.90;;;;;;5114787;28;19914;-56
2022/07/23 05:34:10;;;;;;;;;;;18.20;99.90;;;;;;5114965;28;19908;-56
2022/07/23 05:36:35;;;;;;;;;;;18.20;99.90;;;;;;5095124;28;19911;-54
2022/07/23 05:39:01;;;;;;;;;;;18.10;99.90;;;;;;5113797;28;19916;-56
2022/07/23 05:41:26;;;;;;;;;;;17.90;99.90;;;;;;5113729;28;19923;-57
2022/07/23 05:43:52;;;;;;;;;;;17.70;99.90;;;;;;5121685;27;19911;-56
2022/07/23 05:46:17;;;;;;;;;;;17.60;99.90;;;;;;5134357;27;20002;-57
2022/07/23 05:48:45;;;;;;;;;;;17.50;99.90;;;;;;5134193;27;19915;-59
2022/07/23 05:51:11;;;;;;;;;;;17.40;99.90;;;;;;5133867;27;19911;-60
2022/07/23 05:53:37;;;;;;;;;;;17.50;99.90;;;;;;5135076;27;19960;-58
2022/07/23 05:56:02;;;;;;;;;;;17.60;99.90;;;;;;5134018;27;20002;-59
2022/07/23 05:58:28;;;;;;;;;;;17.70;99.90;;;;;;5134081;27;19980;-58
2022/07/23 06:00:53;;;;;;;;;;;17.80;99.90;;;;;;5115140;27;19912;-58
2022/07/23 06:03:19;;;;;;;;;;;17.80;99.90;;;;;;5134221;27;19934;-56
2022/07/23 06:05:45;;;;;;;;;;;17.80;99.90;;;;;;5133215;27;20377;-58
2022/07/23 06:08:10;;;;;;;;;;;17.70;99.90;;;;;;5133783;27;19955;-58
2022/07/23 06:10:36;;;;;;;;;;;17.60;99.90;;;;;;5127606;27;20259;-58
2022/07/23 06:13:02;;;;;;;;;;;17.40;99.90;;;;;;5113144;28;19907;-57
2022/07/23 06:15:27;;;;;;;;;;;17.30;99.90;;;;;;5113165;28;19919;-55
2022/07/23 06:17:53;;;;;;;;;;;17.20;99.90;;;;;;5112799;28;19914;-58
2022/07/23 06:20:18;;;;;;;;;;;17.20;99.90;;;;;;5094839;28;19962;-56
2022/07/23 06:22:44;;;;;;;;;;;17.30;99.90;;;;;;5113319;28;20435;-57
2022/07/23 06:25:09;;;;;;;;;;;17.40;99.90;;;;;;5113096;28;19912;-56
2022/07/23 06:27:35;;;;;;;;;;;17.60;99.90;;;;;;5113293;28;19912;-54
2022/07/23 06:30:01;;;;;;;;;;;17.70;99.90;;;;;;5113184;28;19916;-55
2022/07/23 06:32:26;;;;;;;;;;;17.80;99.90;;;;;;5113570;28;19916;-53
2022/07/23 06:34:52;;;;;;;;;;;18.00;99.90;;;;;;5113401;28;20274;-56
2022/07/23 06:37:17;;;;;;;;;;;18.10;99.90;;;;;;5112952;28;19916;-52
2022/07/23 06:39:43;;;;;;;;;;;18.10;99.90;;;;;;5112932;28;19911;-53
2022/07/23 06:42:10;;;;;;;;;;;18.20;99.90;;;;;;5112571;28;19934;-53
2022/07/23 06:44:35;;;;;;;;;;;18.50;99.90;;;;;;5126542;28;19907;-51
2022/07/23 06:47:01;;;;;;;;;;;18.60;99.90;;;;;;5132363;28;19918;-53
2022/07/23 06:49:26;;;;;;;;;;;18.70;99.90;;;;;;5133177;27;19915;-56
2022/07/23 06:51:52;;;;;;;;;;;18.90;99.90;;;;;;5115438;28;19943;-54
2022/07/23 06:54:18;;;;;;;;;;;18.90;99.90;;;;;;5133568;28;20360;-55
2022/07/23 06:56:43;;;;;;;;;;;19.00;99.90;;;;;;5132841;28;19911;-49
2022/07/23 06:59:09;;;;;;;;;;;18.80;99.90;;;;;;5133099;27;20291;-55
2022/07/23 07:01:34;;;;;;;;;;;18.70;99.90;;;;;;5133726;28;19918;-52
2022/07/23 07:04:00;;;;;;;;;;;18.70;99.90;;;;;;5133811;28;19907;-52
2022/07/23 07:06:25;;;;;;;;;;;18.70;99.90;;;;;;5134060;28;20367;-50
2022/07/23 07:08:51;;;;;;;;;;;18.70;99.90;;;;;;5134390;27;19915;-53
2022/07/23 07:11:16;;;;;;;;;;;18.50;99.90;;;;;;5122448;28;19968;-52
2022/07/23 07:13:42;;;;;;;;;;;18.50;99.90;;;;;;5100173;28;19965;-51
2022/07/23 07:16:07;;;;;;;;;;;18.30;99.90;;;;;;5119903;28;20279;-50
2022/07/23 07:18:33;;;;;;;;;;;18.40;99.90;;;;;;5118820;28;19908;-55
2022/07/23 07:20:58;;;;;;;;;;;18.40;99.90;;;;;;5099699;28;19907;-50
2022/07/23 07:23:24;;;;;;;;;;;18.50;99.90;;;;;;5117583;28;19920;-49
2022/07/23 07:25:50;;;;;;;;;;;18.60;99.90;;;;;;5116701;28;20014;-57
2022/07/23 07:28:15;;;;;;;;;;;18.70;99.90;;;;;;5116971;28;19919;-53
2022/07/23 07:30:42;;;;;;;;;;;18.90;99.90;;;;;;5117572;28;19951;-53
2022/07/23 07:33:08;;;;;;;;;;;18.90;99.90;;;;;;5117060;28;20352;-51
2022/07/23 07:35:33;;;;;;;;;;;19.20;99.90;;;;;;5117558;28;19947;-46
2022/07/23 07:37:59;;;;;;;;;;;19.60;99.90;;;;;;5117351;28;19908;-48
2022/07/23 07:40:25;;;;;;;;;;;19.60;99.90;;;;;;5116802;28;19929;-56
2022/07/23 07:42:51;;;;;;;;;;;19.50;99.90;;;;;;5117195;28;19979;-50
2022/07/23 07:45:19;;;;;;;;;;;19.30;99.90;;;;;;5136136;27;19964;-49
2022/07/23 07:47:45;;;;;;;;;;;19.30;99.90;;;;;;5137136;27;19907;-50
2022/07/23 07:50:10;;;;;;;;;;;19.40;99.90;;;;;;5119467;27;20244;-55
2022/07/23 07:52:36;;;;;;;;;;;19.40;99.90;;;;;;5137778;27;19960;-46
2022/07/23 07:55:05;;;;;;;;;;;19.50;99.90;;;;;;5137646;27;20394;-53
2022/07/23 07:57:31;;;;;;;;;;;19.40;99.90;;;;;;5137253;27;19957;-51
2022/07/23 07:59:59;;;;;;;;;;;19.30;99.90;;;;;;5137516;27;19911;-55
2022/07/23 08:02:24;;;;;;;;;;;19.20;99.90;;;;;;5138127;27;19912;-56
2022/07/23 08:04:50;;;;;;;;;;;19.30;99.90;;;;;;5137655;27;20626;-50
2022/07/23 08:07:16;;;;;;;;;;;19.20;99.90;;;;;;5137091;27;19911;-45
2022/07/23 08:09:41;;;;;;;;;;;19.10;99.90;;;;;;5137243;27;20412;-53
2022/07/23 08:12:07;;;;;;;;;;;19.00;99.90;;;;;;5117112;27;19911;-51
2022/07/23 08:14:32;;;;;;;;;;;19.10;99.90;;;;;;5116940;28;20019;-50
2022/07/23 08:16:58;;;;;;;;;;;18.90;99.90;;;;;;5115296;28;20543;-46
2022/07/23 08:19:24;;;;;;;;;;;18.70;99.90;;;;;;5115766;28;20323;-50
2022/07/23 08:21:49;;;;;;;;;;;18.80;99.90;;;;;;5115865;28;19969;-52
2022/07/23 08:24:15;;;;;;;;;;;18.80;99.90;;;;;;5114791;28;19930;-53
2022/07/23 08:26:41;;;;;;;;;;;18.80;99.90;;;;;;5114681;28;19912;-46
2022/07/23 08:29:06;;;;;;;;;;;18.70;99.90;;;;;;5115338;28;19919;-47
2022/07/23 08:31:32;;;;;;;;;;;18.60;99.90;;;;;;5114737;28;19908;-50
2022/07/23 08:33:58;;;;;;;;;;;18.60;99.90;;;;;;5115285;28;20007;-51
2022/07/23 08:36:27;;;;;;;;;;;18.80;99.90;;;;;;5114753;28;20015;-52
2022/07/23 08:38:53;;;;;;;;;;;18.70;99.90;;;;;;5115148;28;19916;-49
2022/07/23 08:41:19;;;;;;;;;;;18.70;99.90;;;;;;5115789;28;19907;-49
2022/07/23 08:43:44;;;;;;;;;;;18.70;99.90;;;;;;5121018;27;19957;-50
2022/07/23 08:46:10;;;;;;;;;;;18.80;99.90;;;;;;5134487;27;19908;-49
2022/07/23 08:48:38;;;;;;;;;;;18.80;99.90;;;;;;5135018;27;19916;-54
2022/07/23 08:51:05;;;;;;;;;;;18.90;99.90;;;;;;5117152;27;19914;-51
2022/07/23 08:53:32;;;;;;;;;;;18.90;99.90;;;;;;5134946;27;19911;-50
2022/07/23 08:55:58;;;;;;;;;;;19.10;99.90;;;;;;5134538;27;20386;-50
2022/07/23 08:58:24;;;;;;;;;;;19.20;99.90;;;;;;5134603;27;19907;-49
2022/07/23 09:00:50;;;;;;;;;;;19.30;99.90;;;;;;5135116;27;19918;-53
2022/07/23 09:03:19;;;;;;;;;;;19.40;99.90;;;;;;5135212;27;19907;-54
2022/07/23 09:05:46;;;;;;;;;;;19.30;99.90;;;;;;5134665;27;19915;-51
2022/07/23 09:08:19;;;;;;;;;;;19.40;99.90;;;;;;5135143;27;19912;-50
2022/07/23 09:10:45;;;;;;;;;;;19.60;99.90;;;;;;5128699;27;19911;-52
2022/07/23 09:13:24;;;;;;;;;;;19.40;99.90;;;;;;5114506;28;19912;-48
2022/07/23 09:15:50;;;;;;;;;;;19.30;99.90;;;;;;5114329;28;19947;-48
2022/07/23 09:18:15;;;;;;;;;;;19.10;99.90;;;;;;5114276;28;19979;-52
2022/07/23 09:20:41;;;;;;;;;;;19.10;99.90;;;;;;5114199;28;20283;-52
2022/07/23 09:23:07;;;;;;;;;;;19.20;99.90;;;;;;5113954;28;19967;-52
2022/07/23 09:25:32;;;;;;;;;;;19.30;99.90;;;;;;5114060;28;19912;-49
2022/07/23 09:28:02;;;;;;;;;;;19.30;99.90;;;;;;5113878;28;19907;-52
2022/07/23 09:30:29;;;;;;;;;;;19.30;99.90;;;;;;5114578;28;19923;-51
2022/07/23 09:33:05;;;;;;;;;;;19.10;99.90;;;;;;5113852;28;20028;-54
2022/07/23 09:35:49;;;;;;;;;;;18.90;99.90;;;;;;5111966;28;20139;-53
2022/07/23 09:38:14;;;;;;;;;;;18.80;99.90;;;;;;5113498;28;19911;-52
2022/07/23 09:40:40;;;;;;;;;;;18.90;99.90;;;;;;5113962;28;19919;-48
2022/07/23 09:43:05;;;;;;;;;;;18.90;99.90;;;;;;5115198;27;19912;-52
2022/07/23 09:45:31;;;;;;;;;;;19.20;99.90;;;;;;5134530;27;19954;-51
2022/07/23 09:48:09;;;;;;;;;;;19.20;99.90;;;;;;5115545;27;19922;-51
2022/07/23 09:50:35;;;;;;;;;;;19.00;99.90;;;;;;5133968;27;19911;-53
2022/07/23 09:53:04;;;;;;;;;;;18.90;99.90;;;;;;5115886;27;19964;-47
2022/07/23 09:55:39;;;;;;;;;;;18.90;99.90;;;;;;5133878;27;20496;-49
2022/07/23 09:58:06;;;;;;;;;;;19.10;99.90;;;;;;5134478;27;19919;-47
2022/07/23 10:00:32;;;;;;;;;;;19.30;99.90;;;;;;5134050;27;19915;-52
2022/07/23 10:02:59;;;;;;;;;;;19.50;99.90;;;;;;5134184;27;20052;-51
2022/07/23 10:05:25;;;;;;;;;;;19.70;99.90;;;;;;5134097;27;19915;-49
2022/07/23 10:07:51;;;;;;;;;;;19.70;99.90;;;;;;5134171;27;20483;-54
2022/07/23 10:10:17;;;;;;;;;;;19.60;99.90;;;;;;5129885;27;19915;-49
2022/07/23 10:15:16;;;;;;;;;;;19.60;99.90;;;;;;5112835;28;19915;-54
2022/07/23 10:17:42;;;;;;;;;;;19.80;99.90;;;;;;5112436;28;19908;-49
2022/07/23 10:20:08;;;;;;;;;;;19.90;99.90;;;;;;5095306;28;19920;-54
2022/07/23 10:22:37;;;;;;;;;;;20.00;99.90;;;;;;5114362;28;19919;-56
2022/07/23 10:25:11;;;;;;;;;;;19.90;99.90;;;;;;5115221;28;19942;-54
2022/07/23 10:27:54;;;;;;;;;;;19.90;99.90;;;;;;5112921;28;19962;-49
2022/07/23 10:30:19;;;;;;;;;;;20.00;99.90;;;;;;5112751;28;20019;-50
2022/07/23 10:32:54;;;;;;;;;;;19.80;99.90;;;;;;5112866;28;19954;-53
2022/07/23 10:35:25;;;;;;;;;;;19.70;99.90;;;;;;5094380;28;19934;-48
2022/07/23 10:37:54;;;;;;;;;;;19.80;99.90;;;;;;5112572;28;20485;-54
2022/07/23 10:40:22;;;;;;;;;;;19.90;99.90;;;;;;5113231;28;20282;-48
2022/07/23 10:42:51;;;;;;;;;;;20.10;99.90;;;;;;5113008;28;19916;-48
2022/07/23 10:45:33;;;;;;;;;;;20.30;99.90;;;;;;5131516;28;19918;-50
2022/07/23 10:48:17;;;;;;;;;;;20.40;99.90;;;;;;5135915;27;19911;-49
2022/07/23 10:50:44;;;;;;;;;;;20.50;99.90;;;;;;5137978;27;20383;-54
2022/07/23 10:53:15;;;;;;;;;;;20.60;99.90;;;;;;5137414;27;19914;-53
2022/07/23 10:55:42;;;;;;;;;;;20.80;99.90;;;;;;5137235;27;19953;-46
2022/07/23 10:58:08;;;;;;;;;;;20.90;99.90;;;;;;5137325;27;19931;-51
2022/07/23 11:00:34;;;;;;;;;;;21.20;99.90;;;;;;5137820;27;20327;-52
2022/07/23 11:03:01;;;;;;;;;;;21.20;99.90;;;;;;5138223;27;19914;-54
2022/07/23 11:05:39;;;;;;;;;;;21.30;99.90;;;;;;5136912;27;19965;-49
2022/07/23 11:08:10;;;;;;;;;;;21.20;99.90;;;;;;5137913;27;19984;-51
2022/07/23 11:10:35;;;;;;;;;;;21.30;99.90;;;;;;5131235;27;19912;-49
2022/07/23 11:13:19;;;;;;;;;;;21.30;99.90;;;;;;5117047;28;20260;-46
2022/07/23 11:16:00;;;;;;;;;;;21.20;99.90;;;;;;5116743;28;19907;-48
2022/07/23 11:18:44;;;;;;;;;;;21.20;99.90;;;;;;5116633;28;20264;-49
2022/07/23 11:21:29;;;;;;;;;;;21.10;99.90;;;;;;5117283;28;19908;-46
2022/07/23 11:24:01;;;;;;;;;;;21.40;99.90;;;;;;5117120;28;20393;-51
2022/07/23 11:26:50;;;;;;;;;;;21.80;99.90;;;;;;5115627;28;19912;-52
2022/07/23 11:29:25;;;;;;;;;;;22.30;99.30;;;;;;5108053;28;19935;-54
2022/07/23 11:32:01;;;;;;;;;;;22.60;98.80;;;;;;5117119;28;20048;-52
2022/07/23 11:34:31;;;;;;;;;;;22.70;97.50;;;;;;5116717;28;19907;-57
2022/07/23 11:36:56;;;;;;;;;;;22.70;97.80;;;;;;5117346;28;19915;-52
2022/07/23 11:39:24;;;;;;;;;;;22.70;97.60;;;;;;5117514;28;19912;-49
2022/07/23 11:41:50;;;;;;;;;;;22.70;98.20;;;;;;5117513;28;19912;-47
2022/07/23 11:44:25;;;;;;;;;;;22.60;98.20;;;;;;5127681;27;19915;-47
2022/07/23 11:47:01;;;;;;;;;;;22.40;98.80;;;;;;5137969;27;20381;-54
2022/07/23 11:49:27;;;;;;;;;;;22.20;98.50;;;;;;5136533;27;20003;-50
2022/07/23 11:52:22;;;;;;;;;;;22.00;99.00;;;;;;5137078;27;19908;-47
2022/07/23 11:54:47;;;;;;;;;;;22.20;98.50;;;;;;5115094;27;19918;-52
2022/07/23 11:57:13;;;;;;;;;;;22.20;98.80;;;;;;5135980;27;19907;-47
2022/07/23 11:59:39;;;;;;;;;;;22.30;98.60;;;;;;5136405;27;19915;-47
2022/07/23 12:02:06;;;;;;;;;;;22.30;98.70;;;;;;5136329;27;20290;-51
2022/07/23 12:04:38;;;;;;;;;;;22.20;99.10;;;;;;5136214;27;20391;-52
2022/07/23 12:07:04;;;;;;;;;;;22.40;99.00;;;;;;5117176;27;19923;-53
2022/07/23 12:09:29;;;;;;;;;;;22.70;98.20;;;;;;5136369;27;19922;-47
2022/07/23 12:12:01;;;;;;;;;;;22.90;98.00;;;;;;5101801;28;19947;-51
2022/07/23 12:14:27;;;;;;;;;;;22.90;97.80;;;;;;5129975;27;19947;-47
2022/07/23 12:17:08;;;;;;;;;;;22.70;98.10;;;;;;5135510;27;19919;-54
2022/07/23 12:19:35;;;;;;;;;;;22.80;98.10;;;;;;5136300;27;20469;-54
2022/07/23 12:22:00;;;;;;;;;;;22.90;98.00;;;;;;5136351;27;19934;-56
2022/07/23 12:24:26;;;;;;;;;;;23.10;98.10;;;;;;5136203;27;20594;-49
2022/07/23 12:27:13;;;;;;;;;;;23.40;97.10;;;;;;5135838;27;19943;-49
2022/07/23 12:29:39;;;;;;;;;;;23.30;97.10;;;;;;5136266;27;19934;-52
2022/07/23 12:32:18;;;;;;;;;;;23.10;97.50;;;;;;5136448;27;20296;-49
2022/07/23 12:34:44;;;;;;;;;;;23.20;97.30;;;;;;5136177;27;19914;-49
2022/07/23 12:37:25;;;;;;;;;;;22.90;97.60;;;;;;5135307;27;19950;-53
2022/07/23 12:39:50;;;;;;;;;;;22.90;97.60;;;;;;5136368;27;20396;-52
2022/07/23 12:42:16;;;;;;;;;;;23.00;97.90;;;;;;5135989;27;19914;-53
2022/07/23 12:45:01;;;;;;;;;;;23.40;97.40;;;;;;5120984;27;19912;-51
2022/07/23 12:47:27;;;;;;;;;;;23.70;96.70;;;;;;5114413;28;20612;-50
2022/07/23 12:49:52;;;;;;;;;;;24.00;96.40;;;;;;5114704;28;19916;-51
2022/07/23 12:52:18;;;;;;;;;;;23.80;96.60;;;;;;5115398;28;19912;-48
2022/07/23 12:54:44;;;;;;;;;;;24.10;96.20;;;;;;5097659;28;19912;-51
2022/07/23 12:57:09;;;;;;;;;;;24.20;96.00;;;;;;5114095;28;19915;-50
2022/07/23 12:59:35;;;;;;;;;;;24.00;96.40;;;;;;5115104;28;19908;-52
2022/07/23 13:02:00;;;;;;;;;;;23.90;95.80;;;;;;5114372;28;19923;-49
2022/07/23 13:04:26;;;;;;;;;;;23.90;96.10;;;;;;5114221;28;19919;-49
2022/07/23 13:06:53;;;;;;;;;;;24.10;95.60;;;;;;5114491;28;19908;-52
2022/07/23 13:09:25;;;;;;;;;;;24.30;95.60;;;;;;5114532;28;19919;-51
2022/07/23 13:11:51;;;;;;;;;;;24.90;94.80;;;;;;5113999;28;20051;-49
2022/07/23 13:14:18;;;;;;;;;;;24.90;93.60;;;;;;5113999;28;20355;-48
2022/07/23 13:16:44;;;;;;;;;;;24.80;93.70;;;;;;5114113;28;19943;-52
2022/07/23 13:19:10;;;;;;;;;;;25.10;93.70;;;;;;5114563;28;19915;-51
2022/07/23 13:21:35;;;;;;;;;;;25.20;93.50;;;;;;5114886;28;19908;-49
2022/07/23 13:24:01;;;;;;;;;;;25.30;93.00;;;;;;5114478;28;20010;-48
2022/07/23 13:26:27;;;;;;;;;;;25.50;93.40;;;;;;5113853;28;19926;-53
2022/07/23 13:28:53;;;;;;;;;;;25.70;92.70;;;;;;5096217;28;19959;-48
2022/07/23 13:31:19;;;;;;;;;;;25.60;93.40;;;;;;5114166;28;19908;-52
2022/07/23 13:33:44;;;;;;;;;;;25.90;93.30;;;;;;5114494;28;19908;-53
2022/07/23 13:36:10;;;;;;;;;;;25.90;92.30;;;;;;5114111;28;19914;-47
2022/07/23 13:38:35;;;;;;;;;;;26.00;92.60;;;;;;5114015;28;19999;-48
2022/07/23 13:41:02;;;;;;;;;;;26.00;92.40;;;;;;5114388;28;19911;-48
2022/07/23 13:43:28;;;;;;;;;;;26.00;92.70;;;;;;5118373;27;20307;-50
2022/07/23 13:45:54;;;;;;;;;;;25.40;92.50;;;;;;5134113;27;19965;-49
2022/07/23 13:48:19;;;;;;;;;;;25.20;92.70;;;;;;5132278;27;19912;-46
2022/07/23 13:50:46;;;;;;;;;;;25.40;92.40;;;;;;5132691;27;19915;-46
2022/07/23 13:53:13;;;;;;;;;;;25.60;92.60;;;;;;5132571;27;19912;-47
2022/07/23 13:55:38;;;;;;;;;;;25.70;92.30;;;;;;5132124;27;19957;-54
2022/07/23 13:58:04;;;;;;;;;;;25.50;92.00;;;;;;5132252;27;19964;-51
2022/07/23 14:00:31;;;;;;;;;;;25.50;92.40;;;;;;5132663;27;19915;-52
2022/07/23 14:02:57;;;;;;;;;;;25.60;92.30;;;;;;5132717;27;19959;-50
2022/07/23 14:05:23;;;;;;;;;;;25.90;92.20;;;;;;5132293;27;19961;-52
2022/07/23 14:07:51;;;;;;;;;;;26.20;91.50;;;;;;5132347;27;19915;-56
2022/07/23 14:10:17;;;;;;;;;;;26.60;91.20;;;;;;5128675;27;19922;-53
2022/07/23 14:12:44;;;;;;;;;;;26.70;90.80;;;;;;5112062;28;19912;-52
2022/07/23 14:15:09;;;;;;;;;;;26.20;90.80;;;;;;5112265;28;19908;-50
2022/07/23 14:17:37;;;;;;;;;;;25.90;91.20;;;;;;5112487;28;19985;-53